Aviation Digital Data Service (ADDS)

Output produced by METARs form (2352 UTC 04 August 2015)
found at http://www.aviationweather.gov/adds/metars/
 
METAR text: KSBP 042256Z 31017KT 10SM SCT150 23/12 A2999 RMK AO2 SLP152 T02330117
Conditions at: KSBP (SAN LUIS OBISPO , CA, US) observed 2256 UTC 04 August 2015
Temperature: 23.3°C (74°F)
Dewpoint: 11.7°C (53°F) [RH = 48%]
Pressure (altimeter): 29.99 inches Hg (1015.7 mb)
[Sea-level pressure: 1015.2 mb]
Winds: from the NW (310 degrees) at 20 MPH (17 knots; 8.8 m/s)
Visibility: 10 or more miles (16+ km)
Ceiling: at least 12,000 feet AGL
Clouds: scattered clouds at 15000 feet AGL
Weather: no significant weather observed at this time

METAR text: KSBP 042156Z 30014KT 10SM SCT150 24/11 A2999 RMK AO2 SLP153 T02440111
Conditions at: KSBP (SAN LUIS OBISPO , CA, US) observed 2156 UTC 04 August 2015
Temperature: 24.4°C (76°F)
Dewpoint: 11.1°C (52°F) [RH = 43%]
Pressure (altimeter): 29.99 inches Hg (1015.7 mb)
[Sea-level pressure: 1015.3 mb]
Winds: from the WNW (300 degrees) at 16 MPH (14 knots; 7.3 m/s)
Visibility: 10 or more miles (16+ km)
Ceiling: at least 12,000 feet AGL
Clouds: scattered clouds at 15000 feet AGL
Weather: no significant weather observed at this time

METAR text: KSBP 042056Z 30019G24KT 10SM SCT150 25/11 A3000 RMK AO2 SLP157 T02500111 51005
Conditions at: KSBP (SAN LUIS OBISPO , CA, US) observed 2056 UTC 04 August 2015
Temperature: 25.0°C (77°F)
Dewpoint: 11.1°C (52°F) [RH = 42%]
Pressure (altimeter): 30.00 inches Hg (1016.0 mb)
[Sea-level pressure: 1015.7 mb]
Winds: from the WNW (300 degrees) at 22 MPH (19 knots; 9.9 m/s)
gusting to 28 MPH (24 knots; 12.5 m/s)
Visibility: 10 or more miles (16+ km)
Ceiling: at least 12,000 feet AGL
Clouds: scattered clouds at 15000 feet AGL
Weather: no significant weather observed at this time

METAR text: KSBP 041956Z 30018KT 10SM CLR 24/12 A3000 RMK AO2 SLP156 T02390117
Conditions at: KSBP (SAN LUIS OBISPO , CA, US) observed 1956 UTC 04 August 2015
Temperature: 23.9°C (75°F)
Dewpoint: 11.7°C (53°F) [RH = 46%]
Pressure (altimeter): 30.00 inches Hg (1016.0 mb)
[Sea-level pressure: 1015.6 mb]
Winds: from the WNW (300 degrees) at 21 MPH (18 knots; 9.4 m/s)
Visibility: 10 or more miles (16+ km)
Ceiling: at least 12,000 feet AGL
Clouds: sky clear below 12,000 feet AGL
Weather: no significant weather observed at this time

METAR text: KSBP 041856Z 31015KT 10SM CLR 23/12 A3001 RMK AO2 SLP158 T02330117
Conditions at: KSBP (SAN LUIS OBISPO , CA, US) observed 1856 UTC 04 August 2015
Temperature: 23.3°C (74°F)
Dewpoint: 11.7°C (53°F) [RH = 48%]
Pressure (altimeter): 30.01 inches Hg (1016.3 mb)
[Sea-level pressure: 1015.8 mb]
Winds: from the NW (310 degrees) at 17 MPH (15 knots; 7.8 m/s)
Visibility: 10 or more miles (16+ km)
Ceiling: at least 12,000 feet AGL
Clouds: sky clear below 12,000 feet AGL
Weather: no significant weather observed at this time

METAR text: KSBP 041756Z VRB05KT 10SM BKN080 22/12 A2999 RMK AO2 SLP151 T02170117 10217 20139 50003
Conditions at: KSBP (SAN LUIS OBISPO , CA, US) observed 1756 UTC 04 August 2015
Temperature: 21.7°C (71°F)
Dewpoint: 11.7°C (53°F) [RH = 53%]
Pressure (altimeter): 29.99 inches Hg (1015.7 mb)
[Sea-level pressure: 1015.1 mb]
Winds: variable direction winds at 6 MPH (5 knots; 2.6 m/s)
Visibility: 10 or more miles (16+ km)
Ceiling: 8000 feet AGL
Clouds: broken clouds at 8000 feet AGL
Weather: no significant weather observed at this time

METAR text: KSBP 041656Z COR 29006KT 10SM BKN080 21/12 A2999 RMK AO2 SLP152 T02060122
Conditions at: KSBP (SAN LUIS OBISPO , CA, US) observed 1656 UTC 04 August 2015
Temperature: 20.6°C (69°F)
Dewpoint: 12.2°C (54°F) [RH = 59%]
Pressure (altimeter): 29.99 inches Hg (1015.7 mb)
[Sea-level pressure: 1015.2 mb]
Winds: from the WNW (290 degrees) at 7 MPH (6 knots; 3.1 m/s)
Visibility: 10 or more miles (16+ km)
Ceiling: 8000 feet AGL
Clouds: broken clouds at 8000 feet AGL
Weather: no significant weather observed at this time

METAR text: KSBP 041556Z COR 00000KT 10SM BKN050 19/13 A2998 RMK AO2 SLP151 T01890128
Conditions at: KSBP (SAN LUIS OBISPO , CA, US) observed 1556 UTC 04 August 2015
Temperature: 18.9°C (66°F)
Dewpoint: 12.8°C (55°F) [RH = 68%]
Pressure (altimeter): 29.98 inches Hg (1015.3 mb)
[Sea-level pressure: 1015.1 mb]
Winds: calm
Visibility: 10 or more miles (16+ km)
Ceiling: 5000 feet AGL
Clouds: broken clouds at 5000 feet AGL
Weather: no significant weather observed at this time